sensor_id;sensor_type;location;lat;lon;timestamp;P1;durP1;ratioP1;P2;durP2;ratioP2
43823;SDS011;29470;53.550;9.926;2022-11-20T00:03:38;7.50;;;3.03;;
43823;SDS011;29470;53.550;9.926;2022-11-20T00:08:41;7.28;;;3.58;;
43823;SDS011;29470;53.550;9.926;2022-11-20T00:13:44;6.30;;;3.25;;
43823;SDS011;29470;53.550;9.926;2022-11-20T00:18:50;8.52;;;4.50;;
43823;SDS011;29470;53.550;9.926;2022-11-20T00:23:54;7.30;;;3.45;;
43823;SDS011;29470;53.550;9.926;2022-11-20T00:28:58;5.65;;;3.22;;
43823;SDS011;29470;53.550;9.926;2022-11-20T00:34:04;7.10;;;3.33;;
43823;SDS011;29470;53.550;9.926;2022-11-20T00:39:06;7.25;;;3.55;;
43823;SDS011;29470;53.550;9.926;2022-11-20T00:44:09;5.72;;;3.42;;
43823;SDS011;29470;53.550;9.926;2022-11-20T00:49:13;5.75;;;3.45;;
43823;SDS011;29470;53.550;9.926;2022-11-20T00:54:16;6.78;;;3.50;;
43823;SDS011;29470;53.550;9.926;2022-11-20T00:59:19;7.93;;;4.05;;
43823;SDS011;29470;53.550;9.926;2022-11-20T01:04:26;6.03;;;3.63;;
43823;SDS011;29470;53.550;9.926;2022-11-20T01:09:29;8.80;;;3.85;;
43823;SDS011;29470;53.550;9.926;2022-11-20T01:14:31;5.50;;;3.40;;
43823;SDS011;29470;53.550;9.926;2022-11-20T01:19:35;8.32;;;3.88;;
43823;SDS011;29470;53.550;9.926;2022-11-20T01:24:38;7.13;;;3.85;;
43823;SDS011;29470;53.550;9.926;2022-11-20T01:29:41;7.13;;;3.92;;
43823;SDS011;29470;53.550;9.926;2022-11-20T01:34:45;6.35;;;3.95;;
43823;SDS011;29470;53.550;9.926;2022-11-20T01:39:48;6.32;;;3.92;;
43823;SDS011;29470;53.550;9.926;2022-11-20T01:44:52;6.55;;;3.60;;
43823;SDS011;29470;53.550;9.926;2022-11-20T01:49:59;7.35;;;4.22;;
43823;SDS011;29470;53.550;9.926;2022-11-20T01:55:07;5.70;;;3.95;;
43823;SDS011;29470;53.550;9.926;2022-11-20T02:00:16;5.85;;;3.80;;
43823;SDS011;29470;53.550;9.926;2022-11-20T02:05:23;5.75;;;3.97;;
43823;SDS011;29470;53.550;9.926;2022-11-20T02:10:31;6.70;;;4.03;;
43823;SDS011;29470;53.550;9.926;2022-11-20T02:15:34;8.50;;;4.32;;
43823;SDS011;29470;53.550;9.926;2022-11-20T02:20:38;7.05;;;4.28;;
43823;SDS011;29470;53.550;9.926;2022-11-20T02:25:45;7.53;;;4.20;;
43823;SDS011;29470;53.550;9.926;2022-11-20T02:30:49;6.50;;;4.10;;
43823;SDS011;29470;53.550;9.926;2022-11-20T02:35:52;7.72;;;4.20;;
43823;SDS011;29470;53.550;9.926;2022-11-20T02:40:56;7.20;;;4.05;;
43823;SDS011;29470;53.550;9.926;2022-11-20T02:45:59;8.18;;;4.30;;
43823;SDS011;29470;53.550;9.926;2022-11-20T02:51:02;8.55;;;4.75;;
43823;SDS011;29470;53.550;9.926;2022-11-20T02:56:06;9.45;;;4.82;;
43823;SDS011;29470;53.550;9.926;2022-11-20T03:01:09;8.73;;;4.53;;
43823;SDS011;29470;53.550;9.926;2022-11-20T03:06:12;7.53;;;4.70;;
43823;SDS011;29470;53.550;9.926;2022-11-20T03:11:16;10.15;;;4.35;;
43823;SDS011;29470;53.550;9.926;2022-11-20T03:16:20;9.82;;;4.82;;
43823;SDS011;29470;53.550;9.926;2022-11-20T03:21:23;8.93;;;4.38;;
43823;SDS011;29470;53.550;9.926;2022-11-20T03:26:27;7.22;;;4.32;;
43823;SDS011;29470;53.550;9.926;2022-11-20T03:31:31;7.72;;;4.43;;
43823;SDS011;29470;53.550;9.926;2022-11-20T03:36:37;7.57;;;4.97;;
43823;SDS011;29470;53.550;9.926;2022-11-20T03:41:41;9.77;;;4.53;;
43823;SDS011;29470;53.550;9.926;2022-11-20T03:46:44;7.18;;;3.97;;
43823;SDS011;29470;53.550;9.926;2022-11-20T03:51:47;6.72;;;4.20;;
43823;SDS011;29470;53.550;9.926;2022-11-20T03:56:51;7.95;;;4.63;;
43823;SDS011;29470;53.550;9.926;2022-11-20T04:01:54;6.90;;;4.38;;
43823;SDS011;29470;53.550;9.926;2022-11-20T04:06:57;7.45;;;4.50;;
43823;SDS011;29470;53.550;9.926;2022-11-20T04:12:01;7.13;;;4.28;;
43823;SDS011;29470;53.550;9.926;2022-11-20T04:17:04;9.75;;;5.15;;
43823;SDS011;29470;53.550;9.926;2022-11-20T04:22:06;7.90;;;4.95;;
43823;SDS011;29470;53.550;9.926;2022-11-20T04:27:12;7.57;;;4.50;;
43823;SDS011;29470;53.550;9.926;2022-11-20T04:32:15;6.20;;;4.25;;
43823;SDS011;29470;53.550;9.926;2022-11-20T04:37:17;8.82;;;4.43;;
43823;SDS011;29470;53.550;9.926;2022-11-20T04:42:21;7.82;;;4.57;;
43823;SDS011;29470;53.550;9.926;2022-11-20T04:47:30;7.28;;;4.40;;
43823;SDS011;29470;53.550;9.926;2022-11-20T04:52:33;10.23;;;4.60;;
43823;SDS011;29470;53.550;9.926;2022-11-20T04:57:37;7.30;;;4.45;;
43823;SDS011;29470;53.550;9.926;2022-11-20T05:02:40;6.93;;;4.13;;
43823;SDS011;29470;53.550;9.926;2022-11-20T05:07:42;7.57;;;4.90;;
43823;SDS011;29470;53.550;9.926;2022-11-20T05:12:47;8.20;;;4.50;;
43823;SDS011;29470;53.550;9.926;2022-11-20T05:17:50;8.65;;;4.22;;
43823;SDS011;29470;53.550;9.926;2022-11-20T05:22:56;7.40;;;4.53;;
43823;SDS011;29470;53.550;9.926;2022-11-20T05:28:00;7.88;;;4.82;;
43823;SDS011;29470;53.550;9.926;2022-11-20T05:33:03;8.18;;;4.55;;
43823;SDS011;29470;53.550;9.926;2022-11-20T05:38:05;10.18;;;5.15;;
43823;SDS011;29470;53.550;9.926;2022-11-20T05:43:10;7.22;;;4.57;;
43823;SDS011;29470;53.550;9.926;2022-11-20T05:48:13;8.40;;;4.90;;
43823;SDS011;29470;53.550;9.926;2022-11-20T05:53:15;8.50;;;4.97;;
43823;SDS011;29470;53.550;9.926;2022-11-20T05:58:19;7.32;;;4.85;;
43823;SDS011;29470;53.550;9.926;2022-11-20T06:03:22;8.38;;;4.85;;
43823;SDS011;29470;53.550;9.926;2022-11-20T06:08:25;9.55;;;5.25;;
43823;SDS011;29470;53.550;9.926;2022-11-20T06:13:29;10.52;;;5.18;;
43823;SDS011;29470;53.550;9.926;2022-11-20T06:18:32;9.38;;;5.47;;
43823;SDS011;29470;53.550;9.926;2022-11-20T06:23:35;9.82;;;5.78;;
43823;SDS011;29470;53.550;9.926;2022-11-20T06:28:40;9.85;;;5.10;;
43823;SDS011;29470;53.550;9.926;2022-11-20T06:33:43;9.88;;;5.03;;
43823;SDS011;29470;53.550;9.926;2022-11-20T06:38:46;8.02;;;4.55;;
43823;SDS011;29470;53.550;9.926;2022-11-20T06:43:50;8.50;;;5.22;;
43823;SDS011;29470;53.550;9.926;2022-11-20T06:48:53;8.32;;;5.00;;
43823;SDS011;29470;53.550;9.926;2022-11-20T06:53:56;9.32;;;4.45;;
43823;SDS011;29470;53.550;9.926;2022-11-20T06:59:00;7.97;;;4.50;;
43823;SDS011;29470;53.550;9.926;2022-11-20T07:04:06;10.03;;;4.70;;
43823;SDS011;29470;53.550;9.926;2022-11-20T07:09:09;9.35;;;5.07;;
43823;SDS011;29470;53.550;9.926;2022-11-20T07:14:14;9.30;;;5.03;;
43823;SDS011;29470;53.550;9.926;2022-11-20T07:19:17;10.20;;;5.28;;
43823;SDS011;29470;53.550;9.926;2022-11-20T07:24:20;14.63;;;7.18;;
43823;SDS011;29470;53.550;9.926;2022-11-20T07:29:24;12.60;;;7.40;;
43823;SDS011;29470;53.550;9.926;2022-11-20T07:34:28;12.90;;;7.53;;
43823;SDS011;29470;53.550;9.926;2022-11-20T07:39:31;14.20;;;9.38;;
43823;SDS011;29470;53.550;9.926;2022-11-20T07:44:35;14.80;;;9.00;;
43823;SDS011;29470;53.550;9.926;2022-11-20T07:49:38;13.07;;;7.45;;
43823;SDS011;29470;53.550;9.926;2022-11-20T07:54:41;12.68;;;6.75;;
43823;SDS011;29470;53.550;9.926;2022-11-20T07:59:45;9.80;;;5.40;;
43823;SDS011;29470;53.550;9.926;2022-11-20T08:04:48;10.38;;;6.25;;
43823;SDS011;29470;53.550;9.926;2022-11-20T08:09:51;11.00;;;5.53;;
43823;SDS011;29470;53.550;9.926;2022-11-20T08:14:55;9.75;;;5.15;;
43823;SDS011;29470;53.550;9.926;2022-11-20T08:20:00;8.48;;;5.15;;
43823;SDS011;29470;53.550;9.926;2022-11-20T08:25:03;10.30;;;5.18;;
43823;SDS011;29470;53.550;9.926;2022-11-20T08:30:08;7.95;;;4.25;;
43823;SDS011;29470;53.550;9.926;2022-11-20T08:35:12;5.68;;;3.85;;
43823;SDS011;29470;53.550;9.926;2022-11-20T08:40:15;6.97;;;4.18;;
43823;SDS011;29470;53.550;9.926;2022-11-20T08:45:21;7.03;;;3.78;;
43823;SDS011;29470;53.550;9.926;2022-11-20T08:50:24;5.47;;;3.50;;
43823;SDS011;29470;53.550;9.926;2022-11-20T08:55:27;7.60;;;3.80;;
43823;SDS011;29470;53.550;9.926;2022-11-20T09:00:31;5.68;;;3.53;;
43823;SDS011;29470;53.550;9.926;2022-11-20T09:05:34;6.75;;;3.45;;
43823;SDS011;29470;53.550;9.926;2022-11-20T09:10:37;5.40;;;3.47;;
43823;SDS011;29470;53.550;9.926;2022-11-20T09:15:42;4.63;;;2.80;;
43823;SDS011;29470;53.550;9.926;2022-11-20T09:20:45;5.13;;;3.20;;
43823;SDS011;29470;53.550;9.926;2022-11-20T09:25:48;5.18;;;2.55;;
43823;SDS011;29470;53.550;9.926;2022-11-20T09:30:52;3.78;;;2.50;;
43823;SDS011;29470;53.550;9.926;2022-11-20T09:35:55;4.97;;;2.58;;
43823;SDS011;29470;53.550;9.926;2022-11-20T09:41:00;3.95;;;2.60;;
43823;SDS011;29470;53.550;9.926;2022-11-20T09:46:08;6.15;;;3.13;;
43823;SDS011;29470;53.550;9.926;2022-11-20T09:51:20;5.25;;;2.40;;
43823;SDS011;29470;53.550;9.926;2022-11-20T09:56:33;4.90;;;2.63;;
43823;SDS011;29470;53.550;9.926;2022-11-20T10:01:37;4.97;;;2.78;;
43823;SDS011;29470;53.550;9.926;2022-11-20T10:06:43;4.15;;;2.70;;
43823;SDS011;29470;53.550;9.926;2022-11-20T10:12:12;3.78;;;2.80;;
43823;SDS011;29470;53.550;9.926;2022-11-20T10:17:23;4.68;;;2.58;;
43823;SDS011;29470;53.550;9.926;2022-11-20T10:22:40;3.95;;;2.65;;
43823;SDS011;29470;53.550;9.926;2022-11-20T10:33:34;3.25;;;2.40;;
43823;SDS011;29470;53.550;9.926;2022-11-20T10:39:01;3.60;;;2.47;;
43823;SDS011;29470;53.550;9.926;2022-11-20T10:44:11;4.25;;;2.78;;
43823;SDS011;29470;53.550;9.926;2022-11-20T10:49:38;3.80;;;2.35;;
43823;SDS011;29470;53.550;9.926;2022-11-20T10:54:43;5.38;;;2.97;;
43823;SDS011;29470;53.550;9.926;2022-11-20T11:05:20;5.63;;;3.20;;
43823;SDS011;29470;53.550;9.926;2022-11-20T11:10:31;4.43;;;3.15;;
43823;SDS011;29470;53.550;9.926;2022-11-20T11:15:40;5.40;;;3.30;;
43823;SDS011;29470;53.550;9.926;2022-11-20T11:20:50;4.70;;;3.42;;
43823;SDS011;29470;53.550;9.926;2022-11-20T11:25:58;6.93;;;3.38;;
43823;SDS011;29470;53.550;9.926;2022-11-20T11:31:02;4.87;;;3.00;;
43823;SDS011;29470;53.550;9.926;2022-11-20T11:36:16;4.85;;;3.03;;
43823;SDS011;29470;53.550;9.926;2022-11-20T11:41:24;4.33;;;3.20;;
43823;SDS011;29470;53.550;9.926;2022-11-20T11:46:33;5.43;;;3.20;;
43823;SDS011;29470;53.550;9.926;2022-11-20T11:51:41;4.50;;;2.80;;
43823;SDS011;29470;53.550;9.926;2022-11-20T11:56:57;3.70;;;2.75;;
43823;SDS011;29470;53.550;9.926;2022-11-20T12:02:04;4.57;;;3.35;;
43823;SDS011;29470;53.550;9.926;2022-11-20T12:07:21;4.43;;;3.10;;
43823;SDS011;29470;53.550;9.926;2022-11-20T12:12:48;4.38;;;2.22;;
43823;SDS011;29470;53.550;9.926;2022-11-20T12:17:55;3.47;;;2.20;;
43823;SDS011;29470;53.550;9.926;2022-11-20T12:23:02;3.50;;;2.10;;
43823;SDS011;29470;53.550;9.926;2022-11-20T12:33:52;3.22;;;2.20;;
43823;SDS011;29470;53.550;9.926;2022-11-20T12:39:19;3.53;;;2.05;;
43823;SDS011;29470;53.550;9.926;2022-11-20T12:44:34;4.82;;;2.83;;
43823;SDS011;29470;53.550;9.926;2022-11-20T12:50:14;5.15;;;2.92;;
43823;SDS011;29470;53.550;9.926;2022-11-20T12:55:28;3.83;;;2.58;;
43823;SDS011;29470;53.550;9.926;2022-11-20T13:00:39;4.00;;;2.40;;
43823;SDS011;29470;53.550;9.926;2022-11-20T13:05:52;3.97;;;2.42;;
43823;SDS011;29470;53.550;9.926;2022-11-20T13:11:05;4.43;;;2.70;;
43823;SDS011;29470;53.550;9.926;2022-11-20T13:16:16;5.03;;;3.00;;
43823;SDS011;29470;53.550;9.926;2022-11-20T13:21:34;4.00;;;2.20;;
43823;SDS011;29470;53.550;9.926;2022-11-20T13:26:39;4.78;;;3.00;;
43823;SDS011;29470;53.550;9.926;2022-11-20T13:31:43;3.60;;;2.13;;
43823;SDS011;29470;53.550;9.926;2022-11-20T13:36:48;4.18;;;2.60;;
43823;SDS011;29470;53.550;9.926;2022-11-20T13:41:57;6.75;;;4.10;;
43823;SDS011;29470;53.550;9.926;2022-11-20T13:47:01;5.75;;;3.03;;
43823;SDS011;29470;53.550;9.926;2022-11-20T13:52:26;3.90;;;3.08;;
43823;SDS011;29470;53.550;9.926;2022-11-20T13:57:47;4.68;;;2.90;;
43823;SDS011;29470;53.550;9.926;2022-11-20T14:03:02;4.40;;;2.78;;
43823;SDS011;29470;53.550;9.926;2022-11-20T14:08:17;4.60;;;2.70;;
43823;SDS011;29470;53.550;9.926;2022-11-20T14:13:29;6.15;;;2.70;;
43823;SDS011;29470;53.550;9.926;2022-11-20T14:18:32;3.03;;;2.47;;
43823;SDS011;29470;53.550;9.926;2022-11-20T14:23:35;4.72;;;2.85;;
43823;SDS011;29470;53.550;9.926;2022-11-20T14:28:41;5.15;;;2.70;;
43823;SDS011;29470;53.550;9.926;2022-11-20T14:33:44;4.60;;;2.55;;
43823;SDS011;29470;53.550;9.926;2022-11-20T14:38:47;4.78;;;2.90;;
43823;SDS011;29470;53.550;9.926;2022-11-20T14:43:57;3.70;;;2.50;;
43823;SDS011;29470;53.550;9.926;2022-11-20T14:49:01;4.75;;;2.90;;
43823;SDS011;29470;53.550;9.926;2022-11-20T14:54:09;4.30;;;2.85;;
43823;SDS011;29470;53.550;9.926;2022-11-20T14:59:21;5.30;;;2.88;;
43823;SDS011;29470;53.550;9.926;2022-11-20T15:04:25;4.55;;;2.72;;
43823;SDS011;29470;53.550;9.926;2022-11-20T15:09:29;4.07;;;2.83;;
43823;SDS011;29470;53.550;9.926;2022-11-20T15:14:33;3.40;;;2.05;;
43823;SDS011;29470;53.550;9.926;2022-11-20T15:19:38;4.15;;;2.60;;
43823;SDS011;29470;53.550;9.926;2022-11-20T15:24:52;4.93;;;2.97;;
43823;SDS011;29470;53.550;9.926;2022-11-20T15:29:56;6.35;;;3.58;;
43823;SDS011;29470;53.550;9.926;2022-11-20T15:34:59;8.95;;;3.28;;
43823;SDS011;29470;53.550;9.926;2022-11-20T15:40:02;5.95;;;3.47;;
43823;SDS011;29470;53.550;9.926;2022-11-20T15:45:07;5.40;;;3.25;;
43823;SDS011;29470;53.550;9.926;2022-11-20T15:50:11;7.13;;;3.83;;
43823;SDS011;29470;53.550;9.926;2022-11-20T16:00:23;5.75;;;3.13;;
43823;SDS011;29470;53.550;9.926;2022-11-20T16:05:27;6.82;;;3.60;;
43823;SDS011;29470;53.550;9.926;2022-11-20T16:10:31;5.35;;;3.17;;
43823;SDS011;29470;53.550;9.926;2022-11-20T16:15:35;5.88;;;3.35;;
43823;SDS011;29470;53.550;9.926;2022-11-20T16:20:47;7.93;;;4.00;;
43823;SDS011;29470;53.550;9.926;2022-11-20T16:25:51;5.95;;;3.45;;
43823;SDS011;29470;53.550;9.926;2022-11-20T16:30:56;6.57;;;3.67;;
43823;SDS011;29470;53.550;9.926;2022-11-20T16:36:05;5.38;;;3.55;;
43823;SDS011;29470;53.550;9.926;2022-11-20T16:41:09;5.57;;;3.00;;
43823;SDS011;29470;53.550;9.926;2022-11-20T16:46:16;4.90;;;3.20;;
43823;SDS011;29470;53.550;9.926;2022-11-20T16:51:20;7.63;;;4.50;;
43823;SDS011;29470;53.550;9.926;2022-11-20T16:56:25;7.32;;;4.78;;
43823;SDS011;29470;53.550;9.926;2022-11-20T17:01:30;10.55;;;5.45;;
43823;SDS011;29470;53.550;9.926;2022-11-20T17:06:35;10.82;;;5.88;;
43823;SDS011;29470;53.550;9.926;2022-11-20T17:11:39;12.55;;;6.28;;
43823;SDS011;29470;53.550;9.926;2022-11-20T17:16:43;8.48;;;5.43;;
43823;SDS011;29470;53.550;9.926;2022-11-20T17:21:47;9.38;;;5.63;;
43823;SDS011;29470;53.550;9.926;2022-11-20T17:26:50;9.73;;;5.82;;
43823;SDS011;29470;53.550;9.926;2022-11-20T17:31:54;8.95;;;4.70;;
43823;SDS011;29470;53.550;9.926;2022-11-20T17:36:57;6.97;;;4.90;;
43823;SDS011;29470;53.550;9.926;2022-11-20T17:42:00;9.32;;;5.88;;
43823;SDS011;29470;53.550;9.926;2022-11-20T17:47:21;14.55;;;7.57;;
43823;SDS011;29470;53.550;9.926;2022-11-20T17:52:24;12.20;;;6.43;;
43823;SDS011;29470;53.550;9.926;2022-11-20T17:57:27;10.57;;;6.07;;
43823;SDS011;29470;53.550;9.926;2022-11-20T18:02:48;12.30;;;6.97;;
43823;SDS011;29470;53.550;9.926;2022-11-20T18:07:52;15.30;;;8.98;;
43823;SDS011;29470;53.550;9.926;2022-11-20T18:12:55;16.73;;;9.45;;
43823;SDS011;29470;53.550;9.926;2022-11-20T18:17:59;18.02;;;10.30;;
43823;SDS011;29470;53.550;9.926;2022-11-20T18:23:02;19.40;;;10.63;;
43823;SDS011;29470;53.550;9.926;2022-11-20T18:28:05;22.42;;;12.18;;
43823;SDS011;29470;53.550;9.926;2022-11-20T18:33:11;23.15;;;12.45;;
43823;SDS011;29470;53.550;9.926;2022-11-20T18:38:14;27.10;;;13.02;;
43823;SDS011;29470;53.550;9.926;2022-11-20T18:43:17;27.67;;;14.25;;
43823;SDS011;29470;53.550;9.926;2022-11-20T18:48:39;26.20;;;13.80;;
43823;SDS011;29470;53.550;9.926;2022-11-20T18:53:42;27.35;;;13.75;;
43823;SDS011;29470;53.550;9.926;2022-11-20T18:58:48;28.73;;;14.55;;
43823;SDS011;29470;53.550;9.926;2022-11-20T19:09:26;30.38;;;15.50;;
43823;SDS011;29470;53.550;9.926;2022-11-20T19:14:29;33.67;;;15.80;;
43823;SDS011;29470;53.550;9.926;2022-11-20T19:19:35;29.17;;;15.00;;
43823;SDS011;29470;53.550;9.926;2022-11-20T19:24:38;28.63;;;15.07;;
43823;SDS011;29470;53.550;9.926;2022-11-20T19:29:43;28.20;;;14.63;;
43823;SDS011;29470;53.550;9.926;2022-11-20T19:34:48;30.17;;;14.80;;
43823;SDS011;29470;53.550;9.926;2022-11-20T19:39:50;29.73;;;14.95;;
43823;SDS011;29470;53.550;9.926;2022-11-20T19:44:53;27.20;;;14.98;;
43823;SDS011;29470;53.550;9.926;2022-11-20T19:49:59;30.20;;;15.50;;
43823;SDS011;29470;53.550;9.926;2022-11-20T19:55:02;28.65;;;14.50;;
43823;SDS011;29470;53.550;9.926;2022-11-20T20:00:07;29.90;;;14.80;;
43823;SDS011;29470;53.550;9.926;2022-11-20T20:05:18;29.65;;;14.57;;
43823;SDS011;29470;53.550;9.926;2022-11-20T20:10:21;30.88;;;15.63;;
43823;SDS011;29470;53.550;9.926;2022-11-20T20:15:24;28.85;;;15.35;;
43823;SDS011;29470;53.550;9.926;2022-11-20T20:20:29;44.03;;;22.85;;
43823;SDS011;29470;53.550;9.926;2022-11-20T20:25:32;30.40;;;16.08;;
43823;SDS011;29470;53.550;9.926;2022-11-20T20:30:35;32.38;;;17.13;;
43823;SDS011;29470;53.550;9.926;2022-11-20T20:35:40;31.65;;;15.95;;
43823;SDS011;29470;53.550;9.926;2022-11-20T20:40:47;28.63;;;15.38;;
43823;SDS011;29470;53.550;9.926;2022-11-20T20:45:51;27.95;;;15.38;;
43823;SDS011;29470;53.550;9.926;2022-11-20T20:50:58;32.63;;;15.88;;
43823;SDS011;29470;53.550;9.926;2022-11-20T20:56:03;34.85;;;18.17;;
43823;SDS011;29470;53.550;9.926;2022-11-20T21:01:06;36.45;;;17.67;;
43823;SDS011;29470;53.550;9.926;2022-11-20T21:06:11;35.55;;;17.98;;
43823;SDS011;29470;53.550;9.926;2022-11-20T21:11:17;37.95;;;18.00;;
43823;SDS011;29470;53.550;9.926;2022-11-20T21:16:22;34.65;;;16.80;;
43823;SDS011;29470;53.550;9.926;2022-11-20T21:21:27;31.33;;;16.27;;
43823;SDS011;29470;53.550;9.926;2022-11-20T21:26:48;33.30;;;16.27;;
43823;SDS011;29470;53.550;9.926;2022-11-20T21:31:52;32.25;;;16.77;;
43823;SDS011;29470;53.550;9.926;2022-11-20T21:36:59;32.10;;;15.70;;
43823;SDS011;29470;53.550;9.926;2022-11-20T21:42:02;31.48;;;16.48;;
43823;SDS011;29470;53.550;9.926;2022-11-20T21:47:05;34.13;;;17.13;;
43823;SDS011;29470;53.550;9.926;2022-11-20T21:52:10;33.25;;;16.30;;
43823;SDS011;29470;53.550;9.926;2022-11-20T21:57:16;33.20;;;15.38;;
43823;SDS011;29470;53.550;9.926;2022-11-20T22:07:25;32.38;;;16.60;;
43823;SDS011;29470;53.550;9.926;2022-11-20T22:12:28;36.33;;;17.15;;
43823;SDS011;29470;53.550;9.926;2022-11-20T22:17:33;38.20;;;18.63;;
43823;SDS011;29470;53.550;9.926;2022-11-20T22:22:55;38.35;;;18.10;;
43823;SDS011;29470;53.550;9.926;2022-11-20T22:27:58;37.70;;;17.88;;
43823;SDS011;29470;53.550;9.926;2022-11-20T22:33:01;35.75;;;17.17;;
43823;SDS011;29470;53.550;9.926;2022-11-20T22:38:12;40.13;;;18.40;;
43823;SDS011;29470;53.550;9.926;2022-11-20T22:43:14;42.58;;;19.90;;
43823;SDS011;29470;53.550;9.926;2022-11-20T22:48:17;42.00;;;19.27;;
43823;SDS011;29470;53.550;9.926;2022-11-20T22:53:21;41.30;;;19.50;;
43823;SDS011;29470;53.550;9.926;2022-11-20T22:58:26;43.05;;;19.58;;
43823;SDS011;29470;53.550;9.926;2022-11-20T23:03:29;44.97;;;20.17;;
43823;SDS011;29470;53.550;9.926;2022-11-20T23:08:33;44.10;;;21.23;;
43823;SDS011;29470;53.550;9.926;2022-11-20T23:13:37;43.10;;;19.88;;
43823;SDS011;29470;53.550;9.926;2022-11-20T23:18:41;42.97;;;19.35;;
43823;SDS011;29470;53.550;9.926;2022-11-20T23:23:47;42.00;;;19.77;;
43823;SDS011;29470;53.550;9.926;2022-11-20T23:28:51;40.58;;;19.52;;
43823;SDS011;29470;53.550;9.926;2022-11-20T23:33:55;41.88;;;19.70;;
43823;SDS011;29470;53.550;9.926;2022-11-20T23:38:59;40.03;;;18.63;;
43823;SDS011;29470;53.550;9.926;2022-11-20T23:44:02;35.63;;;17.92;;
43823;SDS011;29470;53.550;9.926;2022-11-20T23:49:05;42.22;;;20.13;;
43823;SDS011;29470;53.550;9.926;2022-11-20T23:54:09;39.15;;;18.27;;
43823;SDS011;29470;53.550;9.926;2022-11-20T23:59:12;41.20;;;19.42;;
